Time;durP1;ratioP1;P1;durP2;ratioP2;P2;SDS_P1;SDS_P2;PMS_P1;PMS_P2;Temp;Humidity;BMP_temperature;BMP_pressure;BME280_temperature;BME280_humidity;BME280_pressure;Samples;Min_cycle;Max_cycle;Signal;HPM_P1;HPM_P2
2022/03/31 00:00:07;;;;;;;30.70;16.77;;;9.40;99.90;;;;;;5018640;28;20452;-54
2022/03/31 00:02:33;;;;;;;30.92;16.20;;;9.40;99.90;;;;;;5018566;28;20935;-54
2022/03/31 00:04:59;;;;;;;28.02;16.10;;;9.40;99.90;;;;;;5021732;28;20375;-54
2022/03/31 00:07:25;;;;;;;29.97;15.70;;;9.40;99.90;;;;;;5019634;28;20479;-54
2022/03/31 00:09:50;;;;;;;30.65;16.42;;;9.40;99.90;;;;;;5015045;28;20891;-54
2022/03/31 00:12:16;;;;;;;32.03;16.80;;;9.50;99.90;;;;;;5016359;28;20991;-54
2022/03/31 00:14:41;;;;;;;30.80;16.90;;;9.50;99.90;;;;;;5019086;28;20463;-54
2022/03/31 00:17:07;;;;;;;27.17;14.88;;;9.50;99.90;;;;;;5014096;28;20483;-54
2022/03/31 00:19:33;;;;;;;28.43;15.50;;;9.60;99.90;;;;;;5013901;28;20416;-54
2022/03/31 00:21:59;;;;;;;28.95;15.10;;;9.60;99.90;;;;;;5007414;28;20505;-54
2022/03/31 00:24:24;;;;;;;25.60;15.77;;;9.60;99.90;;;;;;5019690;28;20432;-55
2022/03/31 00:26:50;;;;;;;28.13;15.55;;;9.40;99.90;;;;;;5022577;28;20389;-55
2022/03/31 00:29:16;;;;;;;28.80;16.20;;;9.40;99.90;;;;;;5001636;28;20467;-54
2022/03/31 00:31:42;;;;;;;30.20;15.77;;;9.30;99.90;;;;;;5018101;28;20426;-54
2022/03/31 00:34:08;;;;;;;27.73;15.30;;;9.40;99.90;;;;;;5021099;28;20857;-54
2022/03/31 00:36:34;;;;;;;25.87;14.80;;;9.40;99.90;;;;;;4998337;28;21147;-54
2022/03/31 00:41:44;;;;;;;26.65;15.20;;;9.30;99.90;;;;;;5019648;28;20923;-54
2022/03/31 00:44:09;;;;;;;26.80;15.00;;;9.20;99.90;;;;;;5015672;28;20412;-54
2022/03/31 00:46:45;;;;;;;25.15;14.18;;;9.10;99.90;;;;;;5021548;28;20421;-54
2022/03/31 00:49:10;;;;;;;27.85;13.80;;;9.10;99.90;;;;;;5002252;28;20410;-54
2022/03/31 00:51:36;;;;;;;25.65;14.32;;;9.10;99.90;;;;;;5002582;28;20387;-54
2022/03/31 00:54:02;;;;;;;24.27;13.63;;;9.10;99.90;;;;;;5017136;28;20391;-54
2022/03/31 00:56:29;;;;;;;26.45;14.07;;;9.00;99.90;;;;;;5019299;28;20392;-53
2022/03/31 00:58:55;;;;;;;25.38;14.10;;;8.90;99.90;;;;;;5001965;28;20389;-54
2022/03/31 01:01:21;;;;;;;25.27;13.52;;;8.90;99.90;;;;;;5003979;28;20923;-54
2022/03/31 01:03:47;;;;;;;23.05;12.98;;;8.80;99.90;;;;;;5022751;28;20400;-54
2022/03/31 01:06:12;;;;;;;22.37;12.20;;;8.70;99.90;;;;;;5019147;28;20379;-53
2022/03/31 01:08:38;;;;;;;24.33;12.77;;;8.70;99.90;;;;;;5018940;28;20384;-54
2022/03/31 01:11:04;;;;;;;25.50;13.60;;;8.70;99.90;;;;;;4999475;28;20769;-54
2022/03/31 01:13:29;;;;;;;21.90;12.40;;;8.70;99.90;;;;;;5019049;28;20399;-54
2022/03/31 01:15:55;;;;;;;24.45;13.00;;;8.70;99.90;;;;;;5017772;28;20393;-54
2022/03/31 01:18:21;;;;;;;22.67;12.80;;;8.70;99.90;;;;;;5014793;28;20900;-53
2022/03/31 01:20:46;;;;;;;19.33;11.35;;;8.60;99.90;;;;;;5020016;28;20419;-54
2022/03/31 01:23:14;;;;;;;22.37;12.40;;;8.70;99.90;;;;;;5021358;28;20901;-53
2022/03/31 01:25:40;;;;;;;19.08;11.65;;;8.70;99.90;;;;;;5011183;28;20419;-54
2022/03/31 01:28:06;;;;;;;20.90;11.70;;;8.70;99.90;;;;;;5004431;28;20399;-54
2022/03/31 01:30:31;;;;;;;21.63;11.63;;;8.60;99.90;;;;;;5002211;28;21259;-54
2022/03/31 01:32:57;;;;;;;21.65;12.18;;;8.60;99.90;;;;;;5004198;28;20408;-54
2022/03/31 01:35:23;;;;;;;24.00;12.77;;;8.60;99.90;;;;;;5010332;28;20393;-53
2022/03/31 01:37:49;;;;;;;20.70;12.18;;;8.60;99.90;;;;;;5000982;28;20387;-54
2022/03/31 01:40:15;;;;;;;24.10;12.30;;;8.60;99.90;;;;;;5012171;28;20416;-53
2022/03/31 01:42:43;;;;;;;21.90;11.70;;;8.70;99.90;;;;;;4992764;28;20733;-54
2022/03/31 01:45:11;;;;;;;22.93;12.50;;;8.70;99.90;;;;;;5009423;28;20463;-55
2022/03/31 01:47:37;;;;;;;26.27;13.32;;;8.70;99.90;;;;;;5009601;28;20747;-54
2022/03/31 01:50:04;;;;;;;30.65;14.70;;;8.70;99.90;;;;;;5010302;28;20403;-55
2022/03/31 01:52:30;;;;;;;24.30;13.30;;;8.60;99.90;;;;;;5009429;28;20420;-54
2022/03/31 01:54:55;;;;;;;24.33;13.40;;;8.60;99.90;;;;;;5010046;28;20879;-54
2022/03/31 01:57:21;;;;;;;29.13;13.93;;;8.40;99.90;;;;;;5009299;28;20373;-54
2022/03/31 01:59:47;;;;;;;26.73;13.50;;;8.30;99.90;;;;;;5009775;28;20444;-52
2022/03/31 02:02:14;;;;;;;21.77;12.27;;;8.30;99.90;;;;;;5010445;28;20869;-53
2022/03/31 02:04:42;;;;;;;22.10;12.73;;;8.20;99.90;;;;;;4991811;28;20389;-53
2022/03/31 02:07:09;;;;;;;24.45;12.50;;;8.00;99.90;;;;;;5009539;28;20393;-53
2022/03/31 02:09:35;;;;;;;20.13;12.40;;;7.80;99.90;;;;;;5008118;28;20461;-53
2022/03/31 02:12:02;;;;;;;26.40;13.52;;;7.80;99.90;;;;;;4998603;28;20386;-53
2022/03/31 02:14:28;;;;;;;28.25;14.70;;;7.60;99.90;;;;;;5000396;28;20432;-54
2022/03/31 02:16:55;;;;;;;28.98;14.85;;;7.50;99.90;;;;;;4990261;28;20417;-53
2022/03/31 02:19:21;;;;;;;25.15;14.52;;;7.60;99.90;;;;;;4994011;28;20496;-53
2022/03/31 02:21:47;;;;;;;27.70;14.95;;;7.70;99.90;;;;;;5009541;28;20396;-53
2022/03/31 02:24:13;;;;;;;29.17;15.30;;;7.70;99.90;;;;;;5009990;28;20400;-53
2022/03/31 02:26:39;;;;;;;28.40;15.00;;;7.70;99.90;;;;;;5009463;28;20427;-53
2022/03/31 02:29:05;;;;;;;26.83;15.10;;;7.70;99.90;;;;;;5008478;28;20770;-53
2022/03/31 02:31:31;;;;;;;27.63;15.18;;;7.70;99.90;;;;;;5007678;28;20472;-53
2022/03/31 02:33:57;;;;;;;26.33;14.90;;;7.70;99.90;;;;;;5009630;28;20385;-53
2022/03/31 02:36:23;;;;;;;22.93;13.90;;;7.60;99.90;;;;;;5008952;28;20395;-53
2022/03/31 02:38:49;;;;;;;32.30;15.27;;;7.50;99.90;;;;;;5009798;28;20381;-53
2022/03/31 02:41:15;;;;;;;27.13;15.20;;;7.40;99.90;;;;;;5009158;28;20421;-52
2022/03/31 02:43:41;;;;;;;27.07;15.43;;;7.30;99.90;;;;;;5009366;28;20481;-53
2022/03/31 02:46:07;;;;;;;28.33;15.37;;;7.40;99.90;;;;;;5009379;28;20395;-52
2022/03/31 02:48:33;;;;;;;26.93;15.47;;;7.30;99.90;;;;;;5007563;28;20384;-53
2022/03/31 02:50:59;;;;;;;26.73;15.50;;;7.20;99.90;;;;;;5009650;28;20428;-53
2022/03/31 02:56:09;;;;;;;32.15;16.08;;;7.20;99.90;;;;;;5009353;28;20909;-52
2022/03/31 02:58:35;;;;;;;27.50;15.47;;;7.20;99.90;;;;;;5008595;28;20392;-52
2022/03/31 03:01:01;;;;;;;25.08;14.43;;;7.20;99.90;;;;;;5003020;28;20439;-52
2022/03/31 03:03:28;;;;;;;26.27;14.68;;;7.20;99.90;;;;;;4989685;28;20387;-52
2022/03/31 03:05:54;;;;;;;25.85;15.30;;;7.10;99.90;;;;;;4989774;28;20391;-51
2022/03/31 03:08:20;;;;;;;26.52;15.60;;;6.90;99.90;;;;;;4988749;28;20465;-51
2022/03/31 03:10:46;;;;;;;28.52;15.57;;;6.90;99.90;;;;;;4988541;28;20402;-53
2022/03/31 03:13:14;;;;;;;28.85;16.45;;;6.90;99.90;;;;;;4989608;28;20391;-52
2022/03/31 03:15:39;;;;;;;26.70;15.32;;;6.90;99.90;;;;;;4989862;28;20387;-52
2022/03/31 03:18:05;;;;;;;28.25;16.15;;;6.80;99.90;;;;;;4993516;28;20386;-52
2022/03/31 03:20:33;;;;;;;29.83;16.70;;;6.80;99.90;;;;;;4992215;28;20784;-52
2022/03/31 03:22:59;;;;;;;26.17;15.23;;;6.80;99.90;;;;;;4992484;28;20421;-52
2022/03/31 03:25:25;;;;;;;28.75;15.73;;;6.80;99.90;;;;;;4992484;28;20372;-51
2022/03/31 03:27:51;;;;;;;28.63;16.65;;;6.80;99.90;;;;;;4993167;28;20847;-53
2022/03/31 03:30:18;;;;;;;26.95;16.08;;;6.80;99.90;;;;;;4993841;28;20473;-51
2022/03/31 03:32:45;;;;;;;26.00;15.10;;;6.70;99.90;;;;;;5012198;28;20385;-52
2022/03/31 03:35:11;;;;;;;27.70;16.30;;;6.80;99.90;;;;;;5009614;28;20408;-53
2022/03/31 03:37:38;;;;;;;29.02;15.52;;;6.90;99.90;;;;;;5011179;28;20391;-53
2022/03/31 03:40:09;;;;;;;26.40;15.50;;;6.80;99.90;;;;;;4994865;28;20467;-53
2022/03/31 03:42:35;;;;;;;27.83;16.90;;;6.80;99.90;;;;;;5009572;28;20734;-53
2022/03/31 03:45:01;;;;;;;28.95;16.30;;;6.80;99.90;;;;;;5011782;28;20443;-53
2022/03/31 03:47:28;;;;;;;28.23;16.20;;;6.90;99.90;;;;;;5010964;28;20397;-52
2022/03/31 03:49:54;;;;;;;27.65;15.88;;;6.80;99.90;;;;;;5011760;28;20483;-52
2022/03/31 03:52:19;;;;;;;31.00;16.20;;;6.80;99.90;;;;;;5010806;28;20417;-50
2022/03/31 03:54:45;;;;;;;29.80;15.40;;;6.80;99.90;;;;;;4994097;28;20809;-52
2022/03/31 03:57:11;;;;;;;29.80;17.20;;;6.70;99.90;;;;;;5011540;28;20377;-52
2022/03/31 03:59:37;;;;;;;29.15;16.13;;;6.70;99.90;;;;;;5010464;28;20416;-52
2022/03/31 04:02:03;;;;;;;26.05;15.73;;;6.60;99.90;;;;;;5010386;28;20475;-52
2022/03/31 04:04:29;;;;;;;30.73;16.13;;;6.70;99.90;;;;;;5010909;28;20396;-52
2022/03/31 04:06:58;;;;;;;29.20;16.20;;;6.70;99.90;;;;;;5011544;28;20405;-51
2022/03/31 04:09:24;;;;;;;28.50;15.02;;;6.80;99.90;;;;;;5010665;28;20385;-52
2022/03/31 04:11:50;;;;;;;29.20;16.30;;;6.70;99.90;;;;;;5011206;28;20751;-52
2022/03/31 04:14:17;;;;;;;26.00;15.57;;;6.60;99.90;;;;;;5011161;28;20377;-51
2022/03/31 04:16:43;;;;;;;29.93;16.77;;;6.60;99.90;;;;;;5010691;28;20401;-52
2022/03/31 04:19:09;;;;;;;25.83;15.80;;;6.60;99.90;;;;;;5011421;28;20396;-52
2022/03/31 04:21:38;;;;;;;25.77;16.30;;;6.50;99.90;;;;;;5010430;28;20443;-52
2022/03/31 04:24:04;;;;;;;26.42;15.43;;;6.50;99.90;;;;;;5011284;28;20481;-52
2022/03/31 04:26:31;;;;;;;29.70;16.67;;;6.40;99.90;;;;;;5009824;28;20396;-52
2022/03/31 04:28:57;;;;;;;28.02;16.10;;;6.80;99.90;;;;;;5010402;28;21180;-52
2022/03/31 04:31:23;;;;;;;28.30;15.80;;;6.30;99.90;;;;;;5010148;28;20396;-53
2022/03/31 04:33:48;;;;;;;30.98;16.85;;;6.40;99.90;;;;;;5011199;28;20389;-52
2022/03/31 04:36:15;;;;;;;31.95;17.02;;;6.50;99.90;;;;;;5008626;28;20408;-52
2022/03/31 04:38:40;;;;;;;30.30;16.27;;;6.40;99.90;;;;;;5010194;28;20443;-52
2022/03/31 04:41:06;;;;;;;26.25;15.48;;;6.40;99.90;;;;;;5010846;28;20413;-52
2022/03/31 04:43:32;;;;;;;32.00;16.90;;;6.40;99.90;;;;;;5009989;28;20416;-52
2022/03/31 04:45:58;;;;;;;28.60;17.08;;;6.50;99.90;;;;;;5010405;28;20930;-52
2022/03/31 04:48:23;;;;;;;30.33;16.75;;;6.50;99.90;;;;;;5010336;28;20401;-51
2022/03/31 04:50:49;;;;;;;30.33;16.63;;;6.50;99.90;;;;;;5008043;28;20740;-52
2022/03/31 04:53:17;;;;;;;30.33;17.20;;;6.60;99.90;;;;;;5008174;28;20456;-52
2022/03/31 04:55:43;;;;;;;27.30;15.93;;;6.60;99.90;;;;;;5009939;28;20381;-52
2022/03/31 04:58:09;;;;;;;27.13;15.93;;;6.60;99.90;;;;;;5010165;28;20743;-53
2022/03/31 05:00:34;;;;;;;28.10;16.13;;;6.50;99.90;;;;;;5009592;28;20452;-52
2022/03/31 05:03:00;;;;;;;28.95;15.60;;;6.50;99.90;;;;;;5009360;28;20400;-52
2022/03/31 05:05:26;;;;;;;29.15;16.02;;;6.50;99.90;;;;;;4991913;28;20393;-52
2022/03/31 05:07:52;;;;;;;29.42;16.33;;;6.50;99.90;;;;;;5010260;28;20443;-52
2022/03/31 05:10:18;;;;;;;30.30;17.30;;;6.40;99.90;;;;;;5009966;28;20870;-52
2022/03/31 05:12:44;;;;;;;27.38;15.20;;;6.30;99.90;;;;;;5009892;28;20439;-52
2022/03/31 05:15:11;;;;;;;28.60;16.33;;;6.30;99.90;;;;;;5010319;28;20397;-52
2022/03/31 05:17:37;;;;;;;30.83;17.15;;;6.30;99.90;;;;;;5006788;28;20418;-51
2022/03/31 05:20:05;;;;;;;31.15;17.02;;;6.40;99.90;;;;;;5010168;28;20417;-51
2022/03/31 05:22:33;;;;;;;27.45;15.80;;;6.30;99.90;;;;;;5008452;28;20428;-51
2022/03/31 05:24:59;;;;;;;33.20;18.35;;;6.30;99.90;;;;;;5010145;28;20384;-52
2022/03/31 05:27:25;;;;;;;32.37;17.97;;;6.40;99.90;;;;;;5009338;28;20847;-51
2022/03/31 05:29:51;;;;;;;27.48;15.65;;;6.50;99.90;;;;;;5009840;28;20393;-52
2022/03/31 05:32:16;;;;;;;28.92;16.55;;;6.50;99.90;;;;;;5009761;28;20429;-51
2022/03/31 05:34:42;;;;;;;29.37;16.27;;;6.50;99.90;;;;;;5009243;28;20889;-52
2022/03/31 05:37:07;;;;;;;28.92;16.10;;;6.60;99.90;;;;;;5009981;28;20393;-52
2022/03/31 05:39:34;;;;;;;31.80;16.27;;;6.60;99.90;;;;;;5008225;28;20381;-56
2022/03/31 05:42:00;;;;;;;31.13;16.00;;;6.60;99.90;;;;;;5009918;28;20389;-51
2022/03/31 05:44:26;;;;;;;27.42;14.57;;;6.60;99.90;;;;;;5009093;28;20388;-51
2022/03/31 05:46:51;;;;;;;31.35;16.63;;;6.60;99.90;;;;;;5009659;28;20388;-52
2022/03/31 05:49:17;;;;;;;28.80;15.17;;;6.70;99.90;;;;;;5009739;28;20381;-51
2022/03/31 05:51:43;;;;;;;27.50;15.45;;;6.60;99.90;;;;;;4990591;28;20388;-52
2022/03/31 05:54:10;;;;;;;28.65;16.17;;;6.60;99.90;;;;;;5009346;28;20384;-52
2022/03/31 05:56:36;;;;;;;29.75;15.77;;;6.60;99.90;;;;;;5008756;28;20381;-52
2022/03/31 05:59:02;;;;;;;26.42;14.50;;;6.70;99.90;;;;;;5009804;28;20438;-52
2022/03/31 06:01:28;;;;;;;27.42;14.77;;;6.80;99.90;;;;;;5006591;28;20802;-51
2022/03/31 06:03:55;;;;;;;27.63;15.33;;;6.80;99.90;;;;;;5007409;28;20408;-52
2022/03/31 06:06:21;;;;;;;25.92;14.65;;;6.80;99.90;;;;;;5005742;28;20405;-51
2022/03/31 06:08:47;;;;;;;27.80;15.47;;;6.80;99.90;;;;;;5008987;28;20399;-52
2022/03/31 06:11:13;;;;;;;25.87;14.77;;;6.80;99.90;;;;;;5009245;28;20482;-52
2022/03/31 06:13:38;;;;;;;29.50;16.08;;;6.80;99.90;;;;;;5008411;28;20546;-51
2022/03/31 06:16:04;;;;;;;33.45;16.88;;;6.70;99.90;;;;;;5009340;28;21279;-51
2022/03/31 06:18:30;;;;;;;32.60;15.52;;;6.50;99.90;;;;;;5008297;28;20389;-51
2022/03/31 06:20:57;;;;;;;31.00;16.17;;;6.70;99.90;;;;;;5007971;28;20898;-51
2022/03/31 06:23:23;;;;;;;32.35;16.80;;;6.80;99.90;;;;;;5008368;28;20425;-51
2022/03/31 06:25:50;;;;;;;30.73;16.88;;;7.00;99.90;;;;;;5008815;28;20385;-51
2022/03/31 06:28:16;;;;;;;29.83;16.55;;;7.00;99.90;;;;;;5009037;28;20498;-52
2022/03/31 06:30:41;;;;;;;30.85;16.02;;;7.00;99.90;;;;;;5008615;28;20948;-52
2022/03/31 06:33:08;;;;;;;27.27;15.37;;;6.90;99.90;;;;;;5009073;28;20389;-52
2022/03/31 06:35:34;;;;;;;28.65;15.98;;;6.90;99.90;;;;;;5006074;28;20881;-52
2022/03/31 06:38:00;;;;;;;29.65;16.15;;;6.90;99.90;;;;;;5009666;28;20439;-54
2022/03/31 06:40:27;;;;;;;30.63;15.60;;;6.90;99.90;;;;;;5006717;28;20425;-52
2022/03/31 06:42:53;;;;;;;29.00;14.75;;;6.90;99.90;;;;;;5009703;28;20384;-53
2022/03/31 06:45:19;;;;;;;26.47;14.80;;;7.10;99.90;;;;;;5008691;28;20404;-52
2022/03/31 06:47:45;;;;;;;26.90;14.70;;;7.30;99.90;;;;;;5008517;28;20388;-52
2022/03/31 06:50:13;;;;;;;29.27;15.07;;;7.20;99.90;;;;;;5009712;28;20401;-52
2022/03/31 06:52:39;;;;;;;26.80;15.45;;;7.30;99.90;;;;;;5012889;28;20924;-53
2022/03/31 06:55:05;;;;;;;29.10;15.40;;;7.30;99.90;;;;;;5013274;28;20383;-53
2022/03/31 06:57:31;;;;;;;28.30;14.68;;;7.30;99.90;;;;;;5012525;28;20399;-53
2022/03/31 06:59:57;;;;;;;26.60;14.70;;;7.20;99.90;;;;;;5013164;28;20409;-53
2022/03/31 07:02:23;;;;;;;25.08;13.88;;;7.30;99.90;;;;;;5012392;28;20945;-52
2022/03/31 07:04:49;;;;;;;27.02;14.98;;;7.40;99.90;;;;;;5013313;28;20397;-53
2022/03/31 07:07:15;;;;;;;28.35;15.60;;;7.30;99.90;;;;;;5009715;28;20401;-54
2022/03/31 07:09:40;;;;;;;29.58;16.23;;;7.40;99.90;;;;;;5003323;28;20671;-51
2022/03/31 07:12:06;;;;;;;29.60;16.03;;;7.50;99.90;;;;;;4993082;28;21009;-54
2022/03/31 07:14:36;;;;;;;28.17;15.20;;;7.70;99.90;;;;;;5003993;28;20403;-53
2022/03/31 07:17:02;;;;;;;27.40;14.65;;;7.90;99.90;;;;;;5012849;28;20391;-53
2022/03/31 07:19:27;;;;;;;26.85;14.50;;;7.60;99.90;;;;;;4991573;28;20481;-52
2022/03/31 07:21:53;;;;;;;34.47;16.13;;;7.60;99.90;;;;;;4993116;28;20697;-52
2022/03/31 07:24:19;;;;;;;29.93;15.90;;;7.60;99.90;;;;;;4992962;28;20876;-52
2022/03/31 07:26:44;;;;;;;27.05;14.65;;;7.50;99.90;;;;;;4992269;28;20390;-52
2022/03/31 07:29:10;;;;;;;29.50;14.70;;;7.50;99.90;;;;;;4993043;28;20458;-52
2022/03/31 07:31:36;;;;;;;27.03;14.80;;;7.70;99.90;;;;;;4999470;28;20391;-52
2022/03/31 07:34:02;;;;;;;28.00;16.27;;;7.80;99.90;;;;;;5012492;28;20392;-53
2022/03/31 07:36:27;;;;;;;27.27;14.90;;;7.80;99.90;;;;;;5009564;28;20890;-52
2022/03/31 07:38:53;;;;;;;26.13;14.40;;;7.80;99.90;;;;;;4998480;28;20514;-53
2022/03/31 07:41:19;;;;;;;26.50;14.57;;;7.80;99.90;;;;;;5009342;28;20428;-53
2022/03/31 07:43:45;;;;;;;28.00;13.95;;;8.00;99.90;;;;;;5011195;28;20503;-53
2022/03/31 07:46:11;;;;;;;25.37;14.50;;;8.10;99.90;;;;;;5011687;28;20392;-52
2022/03/31 07:48:37;;;;;;;31.17;15.80;;;8.00;99.90;;;;;;5011321;28;20378;-52
2022/03/31 07:51:03;;;;;;;23.27;13.65;;;7.90;99.90;;;;;;5012075;28;21118;-52
2022/03/31 07:53:33;;;;;;;27.13;14.88;;;7.90;99.90;;;;;;5007942;28;20411;-53
2022/03/31 07:56:03;;;;;;;30.42;15.32;;;7.90;99.90;;;;;;5011982;28;20512;-54
2022/03/31 07:58:29;;;;;;;25.73;14.02;;;8.00;99.90;;;;;;5010881;28;20420;-53
2022/03/31 08:00:55;;;;;;;27.02;14.45;;;8.10;99.90;;;;;;5010467;28;20421;-53
2022/03/31 08:03:22;;;;;;;29.45;15.23;;;8.30;99.90;;;;;;5009947;28;20742;-53
2022/03/31 08:05:49;;;;;;;29.08;15.27;;;8.30;99.90;;;;;;5011172;28;20463;-53
2022/03/31 08:08:14;;;;;;;26.17;14.68;;;8.20;99.90;;;;;;5008244;28;20412;-53
2022/03/31 08:10:41;;;;;;;27.13;15.30;;;8.30;99.90;;;;;;5010883;28;21170;-53
2022/03/31 08:13:08;;;;;;;27.13;14.90;;;8.20;99.90;;;;;;5011227;28;20472;-53
2022/03/31 08:15:34;;;;;;;25.98;14.95;;;8.10;99.90;;;;;;5010684;28;20381;-53
2022/03/31 08:18:00;;;;;;;27.35;15.40;;;8.10;99.90;;;;;;5011655;28;20580;-53
2022/03/31 08:20:26;;;;;;;26.23;14.60;;;8.20;99.90;;;;;;5010319;28;20781;-52
2022/03/31 08:22:52;;;;;;;26.50;14.23;;;8.50;99.90;;;;;;5010531;28;20409;-53
2022/03/31 08:25:18;;;;;;;25.30;13.87;;;8.60;99.90;;;;;;5011481;28;20400;-54
2022/03/31 08:27:45;;;;;;;28.73;15.13;;;8.50;99.90;;;;;;5010446;28;20389;-53
2022/03/31 08:30:18;;;;;;;28.70;15.60;;;8.60;99.90;;;;;;5011218;28;20397;-53
2022/03/31 08:32:46;;;;;;;26.60;14.50;;;8.60;99.90;;;;;;5007492;28;20380;-53
2022/03/31 08:35:13;;;;;;;27.73;14.80;;;8.50;99.90;;;;;;5009438;28;20420;-53
2022/03/31 08:37:41;;;;;;;27.10;15.00;;;8.40;99.90;;;;;;5010156;28;20459;-53
2022/03/31 08:40:11;;;;;;;30.15;15.70;;;8.30;99.90;;;;;;5007660;28;20423;-54
2022/03/31 08:42:37;;;;;;;27.92;15.18;;;8.40;99.90;;;;;;5007129;28;20408;-53
2022/03/31 08:45:06;;;;;;;27.73;15.27;;;8.60;99.90;;;;;;5008099;28;20408;-54
2022/03/31 08:47:33;;;;;;;28.33;15.85;;;8.60;99.90;;;;;;5005180;28;20417;-53
2022/03/31 08:49:59;;;;;;;25.90;14.80;;;8.60;99.90;;;;;;5006448;28;20479;-53
2022/03/31 08:52:25;;;;;;;29.98;15.35;;;8.70;99.90;;;;;;5010964;28;20481;-52
2022/03/31 08:54:50;;;;;;;30.03;15.63;;;8.90;99.90;;;;;;5010436;28;20750;-54
2022/03/31 08:57:17;;;;;;;29.20;14.90;;;9.00;99.90;;;;;;5011240;28;20381;-53
2022/03/31 08:59:43;;;;;;;26.40;15.93;;;9.20;99.90;;;;;;5009794;28;20392;-54
2022/03/31 09:02:26;;;;;;;31.75;17.00;;;9.40;99.90;;;;;;5009493;28;20956;-53
2022/03/31 09:05:01;;;;;;;27.05;15.30;;;9.40;99.90;;;;;;5007822;28;20775;-54
2022/03/31 09:07:27;;;;;;;28.87;15.70;;;9.30;99.90;;;;;;5009958;28;20415;-53
2022/03/31 09:09:53;;;;;;;31.33;16.15;;;9.40;99.90;;;;;;5009891;28;20983;-53
2022/03/31 09:12:19;;;;;;;26.40;14.07;;;9.70;99.90;;;;;;5007618;28;20400;-54
2022/03/31 09:14:45;;;;;;;27.95;15.18;;;9.70;99.90;;;;;;4991524;28;20547;-54
2022/03/31 09:17:15;;;;;;;27.00;14.90;;;9.90;99.90;;;;;;5009168;28;20973;-54
2022/03/31 09:19:42;;;;;;;29.17;15.45;;;10.10;99.90;;;;;;4985383;28;20424;-53
2022/03/31 09:22:09;;;;;;;25.55;15.18;;;10.20;99.90;;;;;;5000427;28;20425;-54
2022/03/31 09:24:35;;;;;;;26.15;14.48;;;10.10;99.90;;;;;;5009802;28;20396;-54
2022/03/31 09:27:02;;;;;;;25.42;14.10;;;10.10;99.90;;;;;;5010476;28;20388;-55
2022/03/31 09:29:29;;;;;;;27.10;14.40;;;10.00;99.90;;;;;;5009308;28;20863;-53
2022/03/31 09:32:15;;;;;;;31.83;16.13;;;9.90;99.90;;;;;;5004004;28;20416;-55
2022/03/31 09:34:47;;;;;;;25.35;14.20;;;10.10;99.90;;;;;;5004056;28;20421;-54
2022/03/31 09:37:13;;;;;;;25.95;14.70;;;10.20;99.90;;;;;;5007945;28;20393;-54
2022/03/31 09:39:40;;;;;;;30.30;15.45;;;10.20;99.90;;;;;;5008078;28;20396;-54
2022/03/31 09:42:14;;;;;;;25.90;14.93;;;10.50;99.90;;;;;;5010050;28;20881;-54
2022/03/31 09:44:42;;;;;;;24.17;14.40;;;10.60;99.90;;;;;;5009426;28;20384;-54
2022/03/31 09:47:09;;;;;;;24.10;13.95;;;10.80;99.90;;;;;;5002149;28;20408;-51
2022/03/31 09:49:36;;;;;;;25.00;14.50;;;11.10;99.90;;;;;;5010817;28;20408;-51
2022/03/31 09:52:04;;;;;;;25.45;14.65;;;11.40;99.90;;;;;;5009870;28;20396;-51
2022/03/31 09:54:33;;;;;;;25.63;14.50;;;11.80;99.90;;;;;;5009148;28;20384;-51
2022/03/31 09:57:01;;;;;;;25.80;15.30;;;12.20;99.90;;;;;;5009086;28;20476;-51
2022/03/31 09:59:35;;;;;;;26.23;15.27;;;12.10;99.90;;;;;;4990161;28;20379;-51
2022/03/31 10:02:02;;;;;;;25.15;15.10;;;12.00;99.90;;;;;;5001064;28;20407;-51
2022/03/31 10:04:30;;;;;;;26.17;14.52;;;11.70;99.90;;;;;;4989437;28;20417;-51
2022/03/31 10:06:56;;;;;;;24.33;14.93;;;11.80;99.90;;;;;;5005386;28;20380;-52
2022/03/31 10:09:22;;;;;;;25.95;14.80;;;11.90;99.90;;;;;;5010021;28;20404;-52
2022/03/31 10:11:54;;;;;;;25.13;14.73;;;11.90;99.90;;;;;;4989264;28;20436;-52
2022/03/31 10:14:40;;;;;;;24.92;14.73;;;12.00;99.90;;;;;;5001149;28;20397;-52
2022/03/31 10:17:10;;;;;;;24.45;14.70;;;12.20;99.90;;;;;;5009688;28;20850;-52
2022/03/31 10:19:39;;;;;;;25.75;14.40;;;12.20;99.90;;;;;;5009245;28;20388;-52
2022/03/31 10:25:04;;;;;;;26.03;14.00;;;11.90;99.90;;;;;;5011377;28;20435;-52
2022/03/31 10:27:36;;;;;;;25.60;14.17;;;11.90;99.90;;;;;;5012952;28;20412;-52
2022/03/31 10:30:12;;;;;;;25.73;13.95;;;12.00;99.90;;;;;;5013601;28;20399;-52
2022/03/31 10:32:48;;;;;;;24.67;14.80;;;12.10;99.90;;;;;;5013155;28;20393;-52
2022/03/31 10:35:22;;;;;;;24.48;14.88;;;12.00;99.90;;;;;;5013965;28;20501;-53
2022/03/31 10:37:47;;;;;;;26.20;14.43;;;12.00;99.90;;;;;;5012916;28;20488;-55
2022/03/31 10:40:13;;;;;;;26.33;15.00;;;11.90;99.90;;;;;;5013108;28;20500;-52
2022/03/31 10:42:39;;;;;;;24.00;13.70;;;12.00;99.90;;;;;;5012847;28;20385;-52
2022/03/31 10:45:13;;;;;;;22.63;13.13;;;12.10;99.90;;;;;;4996130;28;20388;-53
2022/03/31 10:47:43;;;;;;;22.98;13.82;;;12.00;99.90;;;;;;5012871;28;20392;-53
2022/03/31 10:50:21;;;;;;;22.98;13.52;;;12.00;99.90;;;;;;5013629;28;20458;-53
2022/03/31 10:53:00;;;;;;;24.02;14.02;;;12.00;99.90;;;;;;5012834;28;20480;-53
2022/03/31 10:55:36;;;;;;;25.95;14.65;;;11.80;99.90;;;;;;5013253;28;20389;-52
2022/03/31 10:58:02;;;;;;;23.83;13.90;;;11.90;99.90;;;;;;5012387;28;20439;-53
2022/03/31 11:00:27;;;;;;;24.85;13.95;;;12.00;99.90;;;;;;4998829;28;20910;-52
2022/03/31 11:02:54;;;;;;;24.27;13.27;;;11.70;99.90;;;;;;5012695;28;20404;-53
2022/03/31 11:05:25;;;;;;;24.58;14.10;;;11.80;99.90;;;;;;5013261;28;20404;-53
2022/03/31 11:08:04;;;;;;;22.52;13.43;;;11.60;99.90;;;;;;5012337;28;20409;-53
2022/03/31 11:10:41;;;;;;;23.58;12.98;;;11.70;99.90;;;;;;5006435;28;20385;-52
2022/03/31 11:13:08;;;;;;;26.35;14.30;;;11.80;99.90;;;;;;4993590;28;20399;-53
2022/03/31 11:15:34;;;;;;;23.70;13.80;;;12.20;99.90;;;;;;5011862;28;20743;-53
2022/03/31 11:18:00;;;;;;;23.65;13.20;;;12.10;99.90;;;;;;5007478;28;20414;-52
2022/03/31 11:20:27;;;;;;;24.38;13.80;;;12.30;99.90;;;;;;4989902;28;20802;-52
2022/03/31 11:22:54;;;;;;;23.50;13.95;;;12.30;99.90;;;;;;5011930;28;20877;-53
2022/03/31 11:25:21;;;;;;;27.20;14.45;;;12.30;99.90;;;;;;5012501;28;20393;-53
2022/03/31 11:27:49;;;;;;;23.95;13.90;;;12.30;99.90;;;;;;5009340;28;20568;-52
2022/03/31 11:30:22;;;;;;;25.93;15.07;;;12.20;99.90;;;;;;5009170;28;20393;-53
2022/03/31 11:32:56;;;;;;;23.63;13.75;;;12.10;99.90;;;;;;5011387;28;20443;-53
2022/03/31 11:35:24;;;;;;;22.67;13.27;;;12.00;99.90;;;;;;5012205;28;20377;-53
2022/03/31 11:37:50;;;;;;;25.30;14.47;;;12.20;99.90;;;;;;5007349;28;20419;-52
2022/03/31 11:40:20;;;;;;;24.17;14.05;;;12.30;99.90;;;;;;4995076;28;20409;-52
2022/03/31 11:42:47;;;;;;;27.13;14.38;;;12.20;99.90;;;;;;5010773;28;20476;-52
2022/03/31 11:45:33;;;;;;;22.63;13.15;;;12.20;99.90;;;;;;5009761;28;20482;-53
2022/03/31 11:48:05;;;;;;;26.57;14.60;;;11.90;99.90;;;;;;4996103;28;20392;-53
2022/03/31 11:50:33;;;;;;;24.13;13.90;;;11.90;99.90;;;;;;5011062;28;20408;-52
2022/03/31 11:53:00;;;;;;;23.77;13.73;;;12.20;99.90;;;;;;5012268;28;20380;-52
2022/03/31 11:55:27;;;;;;;23.33;14.10;;;12.20;99.90;;;;;;5011333;28;20404;-52
2022/03/31 11:57:57;;;;;;;26.35;14.65;;;12.00;99.90;;;;;;5011648;28;20380;-55
2022/03/31 12:00:25;;;;;;;30.50;14.15;;;12.00;99.90;;;;;;5011823;28;20424;-54
2022/03/31 12:03:03;;;;;;;24.40;14.02;;;12.10;99.90;;;;;;4993732;28;20769;-52
2022/03/31 12:05:30;;;;;;;23.50;13.17;;;12.10;99.90;;;;;;5009067;28;20511;-52
2022/03/31 12:07:56;;;;;;;25.63;14.20;;;12.00;99.90;;;;;;4990350;28;20408;-54
2022/03/31 12:10:23;;;;;;;25.48;13.73;;;11.80;99.90;;;;;;5012076;28;20392;-52
2022/03/31 12:12:51;;;;;;;23.30;13.45;;;11.80;99.90;;;;;;5010580;28;21209;-52
2022/03/31 12:15:22;;;;;;;24.35;13.32;;;12.00;99.90;;;;;;5008377;28;20425;-52
2022/03/31 12:18:14;;;;;;;25.73;13.90;;;12.00;99.90;;;;;;5007180;28;21134;-52
2022/03/31 12:20:40;;;;;;;25.10;13.38;;;12.00;99.90;;;;;;5009249;28;20973;-52
2022/03/31 12:23:26;;;;;;;24.80;13.90;;;12.10;99.90;;;;;;5008897;28;20409;-52
2022/03/31 12:25:54;;;;;;;26.20;13.52;;;12.10;99.90;;;;;;5009585;28;20504;-53
2022/03/31 12:28:23;;;;;;;25.75;13.73;;;12.10;99.90;;;;;;5011330;28;20902;-52
2022/03/31 12:30:56;;;;;;;24.98;14.43;;;12.30;99.90;;;;;;5010793;28;20389;-53
2022/03/31 12:33:27;;;;;;;28.35;14.35;;;12.10;99.90;;;;;;5011797;28;20471;-52
2022/03/31 12:36:02;;;;;;;26.35;14.68;;;12.00;99.90;;;;;;5008695;28;20397;-52
2022/03/31 12:38:36;;;;;;;22.73;13.05;;;11.80;99.90;;;;;;5008409;28;20932;-51
2022/03/31 12:41:06;;;;;;;23.17;13.87;;;12.00;99.90;;;;;;5010474;28;20575;-52